Nambour, Australia
Current Conditions -  °F | °C
As of 9:00 AM on Wednesday 28 Jan 2015 (Local Time) from YBBN Reporting Station
Light Rain Light Rain  
Wind Chill: 70°   Ceiling: 12000
Heat Index: 70°   Visibility: 6mi
Dew Point: 66°   Wind: 13mph
Humidity: 88%   Direction: 200°SSW
Pressure: 29.71"   Gusts: NA
Location:  26.63°S, 152.96°E
Report Text: YBBN 272300Z 20011KT 9999 -RA FEW015 SCT035 BKN120 21/19 Q1006 INTER 2300/0200 3000 SHRA BKN012
Loading
Personal Weather Stations






























Interactive Weather Map New forecast layout! Learn more

10-Day Weather Forecast

Advertisements
Track Severe Weather on mobile